createdAt,value
2018-09-08T00:00:37.749Z,1.15
2018-09-08T00:03:06.214Z,1.20
2018-09-08T00:05:34.447Z,1.72
2018-09-08T00:08:02.942Z,2.00
2018-09-08T00:10:31.170Z,2.02
2018-09-08T00:12:59.379Z,1.67
2018-09-08T00:15:33.137Z,1.37
2018-09-08T00:18:06.859Z,2.15
2018-09-08T00:20:40.631Z,1.65
2018-09-08T00:23:14.316Z,1.47
2018-09-08T00:25:48.539Z,2.98
2018-09-08T00:28:22.262Z,2.83
2018-09-08T00:30:50.966Z,1.50
2018-09-08T00:33:19.178Z,1.82
2018-09-08T00:35:47.421Z,1.00
2018-09-08T00:38:16.007Z,1.17
2018-09-08T00:40:44.468Z,1.65
2018-09-08T00:43:12.687Z,1.55
2018-09-08T00:45:41.165Z,1.77
2018-09-08T00:48:09.362Z,1.17
2018-09-08T00:50:37.681Z,1.75
2018-09-08T00:53:06.485Z,1.95
2018-09-08T00:55:34.803Z,1.87
2018-09-08T00:58:03.027Z,1.22
2018-09-08T01:00:31.724Z,1.35
2018-09-08T01:02:59.944Z,1.65
2018-09-08T01:05:28.175Z,1.47
2018-09-08T01:07:56.654Z,1.90
2018-09-08T01:10:24.954Z,1.35
2018-09-08T01:12:53.257Z,1.42
2018-09-08T01:15:21.602Z,1.65
2018-09-08T01:17:49.808Z,1.12
2018-09-08T01:20:18.048Z,1.22
2018-09-08T01:22:46.941Z,1.47
2018-09-08T01:25:15.168Z,1.02
2018-09-08T01:27:43.468Z,1.25
2018-09-08T01:30:11.742Z,1.45
2018-09-08T01:32:39.962Z,1.22
2018-09-08T01:35:08.199Z,1.32
2018-09-08T01:37:36.654Z,1.07
2018-09-08T01:40:05.023Z,0.85
2018-09-08T01:42:33.677Z,1.00
2018-09-08T01:45:02.449Z,1.60
2018-09-08T01:47:30.676Z,0.85
2018-09-08T01:49:59.078Z,1.40
2018-09-08T01:52:27.357Z,1.30
2018-09-08T01:54:55.585Z,2.50
2018-09-08T01:57:23.895Z,0.90
2018-09-08T01:59:52.290Z,0.80
2018-09-08T02:02:20.508Z,1.07
2018-09-08T02:04:50.278Z,1.20
2018-09-08T02:07:18.653Z,1.45
2018-09-08T02:09:46.865Z,1.25
2018-09-08T02:12:15.175Z,1.27
2018-09-08T02:14:43.718Z,1.15
2018-09-08T02:17:11.951Z,0.80
2018-09-08T02:19:40.246Z,1.07
2018-09-08T02:22:08.689Z,1.47
2018-09-08T02:24:37.003Z,1.10
2018-09-08T02:27:05.510Z,0.80
2018-09-08T02:29:33.833Z,1.50
2018-09-08T02:32:02.066Z,1.02
2018-09-08T02:34:30.433Z,0.70
2018-09-08T02:36:58.827Z,1.65
2018-09-08T02:39:27.034Z,0.98
2018-09-08T02:41:55.258Z,0.70
2018-09-08T02:44:24.267Z,0.90
2018-09-08T02:46:52.619Z,1.30
2018-09-08T02:49:20.982Z,1.92
2018-09-08T02:51:48.251Z,1.10
2018-09-08T02:54:15.450Z,1.10
2018-09-08T02:56:42.663Z,2.10
2018-09-08T02:59:09.941Z,1.17
2018-09-08T03:01:37.154Z,1.67
2018-09-08T03:04:04.354Z,0.90
2018-09-08T03:06:35.173Z,1.10
2018-09-08T03:09:02.383Z,1.05
2018-09-08T03:11:29.585Z,0.90
2018-09-08T03:13:56.828Z,1.07
2018-09-08T03:16:24.037Z,1.05
2018-09-08T03:18:51.234Z,0.85
2018-09-08T03:21:18.899Z,1.17
2018-09-08T03:23:46.103Z,1.22
2018-09-08T03:26:13.317Z,1.00
2018-09-08T03:28:41.577Z,0.80
2018-09-08T03:31:08.780Z,0.78
2018-09-08T03:33:35.990Z,1.10
2018-09-08T03:36:03.639Z,0.80
2018-09-08T03:38:30.847Z,0.93
2018-09-08T03:40:58.051Z,0.88
2018-09-08T03:43:25.806Z,3.85
2018-09-08T03:45:53.015Z,2.33
2018-09-08T03:48:20.218Z,0.60
2018-09-08T03:50:47.765Z,0.62
2018-09-08T03:53:14.977Z,0.70
2018-09-08T03:55:42.189Z,1.45
2018-09-08T03:58:09.434Z,1.22
2018-09-08T04:00:36.638Z,2.52
2018-09-08T04:03:04.862Z,0.60
2018-09-08T04:05:33.614Z,1.37
2018-09-08T04:08:01.914Z,0.80
2018-09-08T04:10:30.227Z,0.90
2018-09-08T04:12:58.997Z,0.70
2018-09-08T04:15:27.307Z,1.20
2018-09-08T04:17:55.550Z,0.70
2018-09-08T04:20:23.891Z,1.10
2018-09-08T04:22:52.178Z,0.72
2018-09-08T04:25:20.410Z,1.10
2018-09-08T04:27:48.671Z,0.78
2018-09-08T04:30:16.903Z,0.98
2018-09-08T04:32:45.130Z,1.02
2018-09-08T04:35:13.681Z,0.68
2018-09-08T04:37:41.898Z,2.25
2018-09-08T04:40:10.110Z,1.02
2018-09-08T04:42:38.463Z,1.47
2018-09-08T04:45:06.698Z,0.62
2018-09-08T04:47:34.920Z,0.75
2018-09-08T04:50:03.550Z,0.70
2018-09-08T04:52:31.872Z,0.90
2018-09-08T04:55:00.101Z,0.50
2018-09-08T04:57:29.198Z,0.68
2018-09-08T04:59:57.443Z,1.15
2018-09-08T05:02:25.713Z,0.50
2018-09-08T05:04:55.487Z,0.85
2018-09-08T05:07:23.652Z,0.60
2018-09-08T05:09:51.886Z,0.60
2018-09-08T05:12:20.163Z,0.90
2018-09-08T05:14:48.458Z,0.60
2018-09-08T05:17:16.725Z,0.80
2018-09-08T05:19:45.076Z,0.65
2018-09-08T05:22:13.390Z,0.53
2018-09-08T05:24:41.590Z,0.80
2018-09-08T05:27:10.571Z,2.60
2018-09-08T05:29:38.801Z,7.97
2018-09-08T05:32:07.161Z,4.20
2018-09-08T05:34:35.494Z,5.03
2018-09-08T05:37:03.741Z,6.67
2018-09-08T05:39:31.959Z,8.78
2018-09-08T05:42:00.318Z,4.20
2018-09-08T05:44:28.543Z,1.40
2018-09-08T05:46:56.933Z,8.60
2018-09-08T05:49:25.883Z,3.10
2018-09-08T05:51:54.133Z,7.05
2018-09-08T05:54:22.374Z,2.30
2018-09-08T05:56:50.918Z,3.35
2018-09-08T05:59:19.144Z,6.03
2018-09-08T06:01:47.470Z,7.12
2018-09-08T06:04:16.637Z,6.50
2018-09-08T06:06:44.954Z,6.17
2018-09-08T06:09:13.187Z,2.30
2018-09-08T06:11:41.794Z,13.93
2018-09-08T06:14:10.058Z,9.10
2018-09-08T06:16:38.284Z,13.78
2018-09-08T06:19:06.803Z,10.30
2018-09-08T06:21:35.026Z,15.48
2018-09-08T06:24:03.249Z,10.30
2018-09-08T06:26:31.787Z,9.25
2018-09-08T06:29:00.181Z,16.77
2018-09-08T06:31:28.750Z,11.00
2018-09-08T06:33:57.783Z,15.85
2018-09-08T06:36:26.003Z,16.93
2018-09-08T06:38:54.415Z,18.62
2018-09-08T06:41:23.494Z,14.23
2018-09-08T06:43:51.908Z,14.00
2018-09-08T06:46:20.237Z,19.20
2018-09-08T06:48:48.926Z,11.80
2018-09-08T06:51:17.183Z,13.83
2018-09-08T06:53:45.578Z,13.30
2018-09-08T06:56:14.578Z,18.00
2018-09-08T06:58:42.819Z,19.30
2018-09-08T07:01:11.051Z,15.13
2018-09-08T07:03:39.409Z,11.73
2018-09-08T07:06:07.920Z,27.37
2018-09-08T07:08:36.154Z,23.18
2018-09-08T07:11:04.651Z,22.70
2018-09-08T07:13:32.906Z,19.75
2018-09-08T07:16:01.230Z,16.15
2018-09-08T07:18:30.710Z,12.55
2018-09-08T07:20:58.938Z,13.75
2018-09-08T07:23:27.266Z,17.98
2018-09-08T07:25:55.604Z,9.83
2018-09-08T07:28:23.853Z,11.43
2018-09-08T07:30:52.275Z,16.90
2018-09-08T07:33:23.938Z,12.47
2018-09-08T07:35:52.170Z,13.93
2018-09-08T07:38:22.550Z,12.58
2018-09-08T07:40:51.139Z,16.82
2018-09-08T07:43:19.379Z,17.23
2018-09-08T07:45:47.779Z,10.95
2018-09-08T07:48:16.086Z,13.08
2018-09-08T07:50:44.321Z,11.18
2018-09-08T07:53:12.581Z,17.12
2018-09-08T07:55:41.202Z,15.35
2018-09-08T07:58:09.430Z,12.80
2018-09-08T08:00:37.666Z,10.55
2018-09-08T08:03:06.656Z,10.85
2018-09-08T08:05:36.565Z,11.12
2018-09-08T08:08:04.904Z,10.85
2018-09-08T08:10:33.533Z,10.75
2018-09-08T08:13:01.770Z,14.18
2018-09-08T08:15:30.090Z,18.02
2018-09-08T08:17:58.673Z,20.62
2018-09-08T08:20:26.914Z,16.93
2018-09-08T08:22:55.171Z,11.28
2018-09-08T08:25:24.798Z,13.68
2018-09-08T08:27:53.027Z,17.62
2018-09-08T08:30:21.318Z,11.90
2018-09-08T08:32:49.591Z,7.90
2018-09-08T08:35:17.887Z,8.28
2018-09-08T08:37:46.143Z,11.35
2018-09-08T08:40:14.808Z,16.48
2018-09-08T08:42:43.043Z,12.18
2018-09-08T08:45:11.327Z,5.78
2018-09-08T08:47:40.428Z,8.95
2018-09-08T08:50:20.126Z,4.78
2018-09-08T08:53:00.364Z,9.48
2018-09-08T08:55:28.667Z,8.43
2018-09-08T08:57:56.906Z,7.30
2018-09-08T09:00:25.237Z,5.92
2018-09-08T09:02:53.602Z,5.17
2018-09-08T09:05:23.258Z,3.80
2018-09-08T09:07:51.885Z,4.67
2018-09-08T09:10:20.136Z,5.00
2018-09-08T09:12:48.462Z,4.03
2018-09-08T09:15:17.356Z,5.00
2018-09-08T09:20:15.999Z,2.25
2018-09-08T09:22:56.168Z,3.17
2018-09-08T09:25:24.400Z,3.45
2018-09-08T09:27:52.878Z,2.92
2018-09-08T09:30:21.807Z,2.12
2018-09-08T09:32:50.031Z,1.45
2018-09-08T09:35:19.631Z,2.70
2018-09-08T09:37:48.174Z,2.40
2018-09-08T09:40:17.627Z,1.95
2018-09-08T09:42:45.922Z,2.85
2018-09-08T09:45:14.355Z,1.50
2018-09-08T09:47:42.678Z,0.90
2018-09-08T09:50:12.078Z,4.15
2018-09-08T09:52:40.822Z,2.47
2018-09-08T09:55:09.227Z,2.00
2018-09-08T09:57:37.458Z,3.30
2018-09-08T10:00:07.807Z,3.15
2018-09-08T10:02:45.306Z,8.20
2018-09-08T10:05:15.703Z,4.67
2018-09-08T10:07:44.684Z,3.05
2018-09-08T10:10:15.408Z,10.82
2018-09-08T10:12:44.025Z,7.10
2018-09-08T10:15:12.335Z,4.30
2018-09-08T10:17:41.543Z,6.15
2018-09-08T10:20:11.926Z,8.50
2018-09-08T10:22:40.249Z,5.65
2018-09-08T10:25:10.802Z,4.83
2018-09-08T10:27:39.303Z,7.65
2018-09-08T10:30:08.487Z,5.03
2018-09-08T10:32:36.814Z,10.40
2018-09-08T10:35:05.317Z,6.72
2018-09-08T10:37:33.555Z,6.03
2018-09-08T10:40:01.809Z,7.28
2018-09-08T10:42:30.706Z,6.05
2018-09-08T10:44:58.974Z,3.47
2018-09-08T10:47:27.303Z,5.85
2018-09-08T10:49:56.883Z,4.47
2018-09-08T10:52:32.464Z,8.38
2018-09-08T10:55:01.339Z,4.03
2018-09-08T10:57:29.567Z,6.28
2018-09-08T10:59:58.422Z,5.42
2018-09-08T11:02:29.157Z,9.48
2018-09-08T11:04:59.142Z,5.12
2018-09-08T11:07:27.786Z,4.60
2018-09-08T11:09:56.026Z,9.43
2018-09-08T11:12:24.272Z,13.83
2018-09-08T11:14:52.855Z,14.60
2018-09-08T11:17:21.063Z,4.20
2018-09-08T11:19:49.294Z,11.30
2018-09-08T11:22:18.090Z,3.87
2018-09-08T11:24:46.330Z,6.25
2018-09-08T11:27:14.794Z,6.28
2018-09-08T11:29:43.547Z,5.15
2018-09-08T11:32:11.807Z,7.08
2018-09-08T11:34:40.121Z,6.22
2018-09-08T11:37:08.994Z,9.35
2018-09-08T11:39:37.331Z,9.18
2018-09-08T11:42:05.701Z,5.85
2018-09-08T11:44:35.050Z,5.87
2018-09-08T11:47:03.580Z,9.33
2018-09-08T11:49:31.932Z,7.05
2018-09-08T11:52:01.442Z,6.97
2018-09-08T11:54:29.836Z,2.72
2018-09-08T11:56:58.372Z,4.45
2018-09-08T11:59:26.725Z,5.80
2018-09-08T12:01:55.027Z,3.95
2018-09-08T12:04:23.746Z,3.47
2018-09-08T12:06:52.181Z,3.25
2018-09-08T12:09:20.437Z,4.58
2018-09-08T12:11:49.170Z,6.00
2018-09-08T12:14:17.436Z,3.75
2018-09-08T12:16:45.729Z,8.15
2018-09-08T12:19:14.317Z,5.53
2018-09-08T12:21:42.632Z,3.92
2018-09-08T12:24:10.854Z,2.55
2018-09-08T12:26:39.954Z,4.22
2018-09-08T12:29:08.193Z,3.30
2018-09-08T12:31:36.413Z,2.52
2018-09-08T12:34:05.508Z,2.90
2018-09-08T12:36:33.762Z,3.30
2018-09-08T12:39:02.070Z,3.83
2018-09-08T12:41:30.753Z,2.60
2018-09-08T12:43:59.048Z,5.62
2018-09-08T12:46:27.291Z,3.52
2018-09-08T12:48:55.870Z,3.02
2018-09-08T12:51:24.102Z,2.85
2018-09-08T12:53:52.406Z,2.65
2018-09-08T12:56:21.017Z,3.77
2018-09-08T12:58:49.303Z,3.40
2018-09-08T13:01:17.606Z,2.05
2018-09-08T13:03:46.358Z,2.22
2018-09-08T13:06:14.619Z,4.90
2018-09-08T13:08:43.436Z,2.52
2018-09-08T13:11:12.006Z,2.77
2018-09-08T13:13:40.247Z,4.33
2018-09-08T13:16:08.466Z,1.60
2018-09-08T13:18:37.046Z,1.60
2018-09-08T13:21:05.296Z,2.90
2018-09-08T13:23:33.583Z,3.35
2018-09-08T13:26:02.495Z,2.25
2018-09-08T13:28:30.728Z,2.35
2018-09-08T13:30:58.954Z,2.22
2018-09-08T13:33:27.839Z,2.30
2018-09-08T13:35:57.094Z,1.42
2018-09-08T13:38:25.428Z,4.72
2018-09-08T13:40:53.791Z,3.02
2018-09-08T13:43:22.120Z,2.95
2018-09-08T13:45:50.866Z,2.30
2018-09-08T13:48:19.162Z,2.17
2018-09-08T13:50:47.393Z,1.62
2018-09-08T13:53:16.219Z,2.15
2018-09-08T13:55:44.539Z,1.57
2018-09-08T13:58:12.767Z,1.22
2018-09-08T14:00:41.958Z,2.40
2018-09-08T14:03:10.203Z,1.65
2018-09-08T14:05:39.834Z,1.45
2018-09-08T14:08:12.623Z,2.05
2018-09-08T14:10:41.395Z,1.15
2018-09-08T14:13:09.690Z,3.22
2018-09-08T14:15:38.481Z,3.42
2018-09-08T14:18:06.722Z,2.58
2018-09-08T14:20:34.958Z,1.55
2018-09-08T14:23:04.202Z,1.42
2018-09-08T14:25:32.596Z,1.27
2018-09-08T14:28:00.895Z,1.47
2018-09-08T14:30:29.358Z,2.37
2018-09-08T14:32:57.675Z,1.60
2018-09-08T14:35:26.071Z,1.32
2018-09-08T14:37:54.366Z,1.87
2018-09-08T14:40:22.619Z,2.15
2018-09-08T14:42:50.846Z,1.17
2018-09-08T14:45:19.537Z,1.52
2018-09-08T14:47:47.814Z,4.28
2018-09-08T14:50:16.038Z,1.57
2018-09-08T14:52:44.882Z,1.22
2018-09-08T14:55:13.184Z,2.70
2018-09-08T14:57:41.430Z,1.47
2018-09-08T15:00:09.829Z,2.83
2018-09-08T15:02:38.146Z,1.10
2018-09-08T15:05:06.563Z,1.80
2018-09-08T15:07:35.263Z,1.07
2018-09-08T15:10:03.675Z,1.98
2018-09-08T15:12:32.510Z,1.52
2018-09-08T15:15:00.854Z,0.70
2018-09-08T15:17:29.081Z,0.57
2018-09-08T15:19:57.322Z,1.00
2018-09-08T15:22:26.023Z,0.80
2018-09-08T15:24:54.248Z,1.07
2018-09-08T15:27:22.485Z,1.60
2018-09-08T15:29:51.411Z,0.68
2018-09-08T15:32:19.811Z,1.25
2018-09-08T15:34:48.043Z,1.10
2018-09-08T15:37:16.625Z,1.32
2018-09-08T15:39:44.938Z,1.45
2018-09-08T15:42:13.255Z,1.45
2018-09-08T15:44:41.974Z,1.30
2018-09-08T15:47:10.295Z,2.67
2018-09-08T15:49:38.614Z,0.75
2018-09-08T15:52:07.551Z,1.95
2018-09-08T15:54:35.794Z,3.12
2018-09-08T15:57:04.059Z,2.67
2018-09-08T15:59:32.806Z,2.40
2018-09-08T16:02:01.046Z,6.05
2018-09-08T16:04:29.297Z,2.87
2018-09-08T16:06:57.964Z,4.17
2018-09-08T16:09:26.263Z,4.58
2018-09-08T16:11:54.498Z,11.85
2018-09-08T16:14:23.801Z,5.92
2018-09-08T16:16:52.023Z,7.30
2018-09-08T16:19:20.254Z,5.95
2018-09-08T16:21:48.775Z,3.00
2018-09-08T16:24:17.022Z,9.18
2018-09-08T16:26:45.230Z,10.58
2018-09-08T16:29:13.838Z,7.37
2018-09-08T16:31:42.065Z,5.80
2018-09-08T16:34:10.374Z,7.70
2018-09-08T16:36:39.164Z,6.35
2018-09-08T16:39:09.213Z,15.58
2018-09-08T16:41:37.598Z,12.47
2018-09-08T16:44:06.927Z,27.22
2018-09-08T16:46:35.201Z,30.43
2018-09-08T16:49:03.516Z,28.73
2018-09-08T16:51:31.812Z,30.97
2018-09-08T16:54:00.030Z,25.50
2018-09-08T16:56:28.266Z,25.55
2018-09-08T16:58:57.234Z,24.47
2018-09-08T17:01:25.488Z,26.45
2018-09-08T17:03:55.328Z,21.57
2018-09-08T17:06:23.594Z,22.27
2018-09-08T17:08:51.830Z,27.22
2018-09-08T17:11:20.126Z,25.75
2018-09-08T17:13:48.373Z,20.82
2018-09-08T17:16:16.854Z,20.25
2018-09-08T17:18:45.130Z,29.15
2018-09-08T17:21:13.365Z,23.10
2018-09-08T17:23:41.719Z,25.37
2018-09-08T17:26:10.716Z,23.85
2018-09-08T17:28:39.038Z,26.87
2018-09-08T17:31:07.378Z,24.32
2018-09-08T17:33:35.880Z,22.50
2018-09-08T17:36:04.192Z,19.75
2018-09-08T17:38:32.419Z,22.40
2018-09-08T17:41:01.128Z,14.87
2018-09-08T17:43:29.342Z,16.23
2018-09-08T17:45:57.757Z,16.52
2018-09-08T17:48:26.966Z,14.58
2018-09-08T17:50:55.223Z,12.45
2018-09-08T17:53:23.539Z,20.40
2018-09-08T17:55:52.315Z,16.02
2018-09-08T17:58:20.643Z,10.82
2018-09-08T18:00:48.969Z,15.03
2018-09-08T18:03:17.678Z,15.30
2018-09-08T18:05:46.139Z,14.65
2018-09-08T18:08:19.201Z,10.68
2018-09-08T18:10:47.748Z,12.47
2018-09-08T18:13:16.698Z,7.42
2018-09-08T18:15:45.493Z,9.70
2018-09-08T18:18:14.593Z,13.68
2018-09-08T18:20:42.847Z,12.73
2018-09-08T18:23:11.208Z,10.45
2018-09-08T18:25:39.379Z,8.93
2018-09-08T18:28:08.823Z,9.80
2018-09-08T18:30:37.155Z,21.33
2018-09-08T18:33:05.388Z,16.07
2018-09-08T18:35:34.167Z,17.60
2018-09-08T18:38:02.415Z,16.85
2018-09-08T18:40:30.656Z,22.40
2018-09-08T18:42:59.406Z,16.60
2018-09-08T18:45:27.646Z,12.18
2018-09-08T18:47:55.870Z,21.68
2018-09-08T18:50:25.365Z,26.00
2018-09-08T18:52:53.766Z,10.20
2018-09-08T18:55:22.092Z,14.58
2018-09-08T18:57:50.402Z,15.85
2018-09-08T19:00:18.960Z,16.95
2018-09-08T19:02:47.292Z,15.40
2018-09-08T19:05:16.355Z,13.95
2018-09-08T19:07:44.616Z,14.58
2018-09-08T19:10:13.833Z,12.63
2018-09-08T19:12:42.133Z,21.40
2018-09-08T19:15:16.011Z,14.05
2018-09-08T19:17:44.529Z,15.60
2018-09-08T19:20:26.496Z,16.12
2018-09-08T19:22:54.829Z,20.50
2018-09-08T19:25:23.075Z,19.50
2018-09-08T19:27:51.503Z,18.57
2018-09-08T19:30:20.183Z,16.23
2018-09-08T19:32:48.487Z,10.80
2018-09-08T19:35:22.816Z,20.57
2018-09-08T19:37:51.463Z,10.38
2018-09-08T19:40:25.589Z,13.72
2018-09-08T19:42:54.045Z,10.63
2018-09-08T19:45:22.215Z,21.80
2018-09-08T19:47:55.875Z,23.60
2018-09-08T19:50:24.226Z,15.58
2018-09-08T19:52:57.990Z,10.72
2018-09-08T19:55:26.481Z,19.17
2018-09-08T19:58:01.141Z,17.15
2018-09-08T20:00:29.391Z,12.53
2018-09-08T20:02:57.639Z,10.80
2018-09-08T20:05:28.363Z,9.60
2018-09-08T20:07:56.781Z,10.93
2018-09-08T20:10:25.255Z,11.33
2018-09-08T20:12:54.213Z,8.20
2018-09-08T20:15:22.664Z,10.43
2018-09-08T20:17:51.008Z,10.80
2018-09-08T20:20:20.469Z,12.00
2018-09-08T20:22:50.055Z,10.82
2018-09-08T20:25:18.343Z,13.43
2018-09-08T20:27:46.777Z,12.73
2018-09-08T20:30:15.040Z,11.33
2018-09-08T20:32:44.647Z,10.98
2018-09-08T20:35:12.895Z,10.38
2018-09-08T20:37:41.162Z,9.98
2018-09-08T20:40:09.791Z,9.60
2018-09-08T20:42:38.199Z,9.48
2018-09-08T20:45:06.704Z,11.78
2018-09-08T20:47:35.856Z,11.40
2018-09-08T20:50:04.151Z,8.68
2018-09-08T20:52:32.336Z,10.40
2018-09-08T20:55:00.846Z,5.67
2018-09-08T20:57:29.181Z,7.25
2018-09-08T20:59:57.423Z,10.10
2018-09-08T21:02:26.096Z,10.23
2018-09-08T21:04:54.363Z,11.85
2018-09-08T21:07:22.582Z,7.47
2018-09-08T21:09:51.838Z,8.78
2018-09-08T21:12:20.160Z,9.13
2018-09-08T21:14:48.398Z,7.87
2018-09-08T21:17:19.607Z,6.22
2018-09-08T21:19:48.122Z,3.90
2018-09-08T21:22:17.326Z,8.25
2018-09-08T21:24:46.110Z,6.83
2018-09-08T21:27:14.327Z,7.92
2018-09-08T21:29:42.718Z,8.03
2018-09-08T21:32:11.860Z,5.67
2018-09-08T21:34:40.193Z,9.35
2018-09-08T21:37:08.419Z,7.37
2018-09-08T21:39:37.015Z,7.03
2018-09-08T21:42:05.240Z,5.45
2018-09-08T21:44:33.558Z,5.20
2018-09-08T21:47:05.910Z,6.75
2018-09-08T21:49:30.557Z,7.58
2018-09-08T21:51:58.954Z,6.40
2018-09-08T21:54:28.266Z,5.15
2018-09-08T21:56:56.506Z,5.25
2018-09-08T21:59:24.744Z,3.92
2018-09-08T22:01:53.078Z,4.95
2018-09-08T22:04:21.315Z,3.35
2018-09-08T22:06:49.551Z,4.53
2018-09-08T22:09:19.386Z,5.15
2018-09-08T22:11:47.613Z,6.00
2018-09-08T22:14:15.834Z,2.90
2018-09-08T22:16:48.109Z,5.15
2018-09-08T22:19:16.357Z,4.35
2018-09-08T22:21:44.606Z,5.30
2018-09-08T22:24:14.030Z,4.08
2018-09-08T22:26:42.295Z,5.53
2018-09-08T22:29:10.531Z,3.60
2018-09-08T22:31:38.825Z,5.22
2018-09-08T22:34:07.072Z,5.62
2018-09-08T22:36:35.398Z,4.78
2018-09-08T22:39:05.162Z,4.87
2018-09-08T22:41:33.395Z,4.45
2018-09-08T22:44:01.634Z,4.42
2018-09-08T22:46:29.976Z,5.20
2018-09-08T22:48:58.454Z,4.35
2018-09-08T22:51:26.841Z,4.15
2018-09-08T22:53:55.542Z,4.72
2018-09-08T22:56:23.795Z,5.95
2018-09-08T22:58:52.035Z,5.20
2018-09-08T23:01:20.339Z,5.40
2018-09-08T23:03:49.578Z,3.90
2018-09-08T23:06:18.253Z,5.15
2018-09-08T23:08:46.548Z,3.05
2018-09-08T23:11:14.787Z,4.17
2018-09-08T23:13:43.495Z,4.37
2018-09-08T23:16:11.830Z,3.20
2018-09-08T23:18:40.132Z,2.92
2018-09-08T23:21:09.055Z,1.82
2018-09-08T23:23:37.362Z,2.85
2018-09-08T23:26:05.675Z,4.22
2018-09-08T23:28:35.302Z,4.55
2018-09-08T23:31:03.540Z,2.87
2018-09-08T23:33:31.773Z,3.12
2018-09-08T23:36:00.441Z,3.50
2018-09-08T23:38:28.762Z,2.10
2018-09-08T23:40:57.083Z,2.58
2018-09-08T23:43:25.390Z,2.25
2018-09-08T23:45:53.619Z,3.37
2018-09-08T23:48:21.842Z,2.72
2018-09-08T23:50:50.385Z,3.22
2018-09-08T23:53:18.594Z,2.55
2018-09-08T23:55:46.842Z,4.62
2018-09-08T23:58:16.179Z,3.15
